createdAt,value
2023-06-17T00:02:24.054Z,50.22
2023-06-17T00:04:52.320Z,50.75
2023-06-17T00:07:19.387Z,50.25
2023-06-17T00:09:46.324Z,50.51
2023-06-17T00:12:13.537Z,50.46
2023-06-17T00:14:41.904Z,50.75
2023-06-17T00:17:12.184Z,50.81
2023-06-17T00:19:39.943Z,50.81
2023-06-17T00:22:09.636Z,50.68
2023-06-17T00:24:36.955Z,50.95
2023-06-17T00:27:04.592Z,50.55
2023-06-17T00:29:31.508Z,50.56
2023-06-17T00:31:58.557Z,50.47
2023-06-17T00:34:25.546Z,50.49
2023-06-17T00:36:52.448Z,50.60
2023-06-17T00:39:20.672Z,50.70
2023-06-17T00:41:47.641Z,50.58
2023-06-17T00:44:14.558Z,50.62
2023-06-17T00:46:47.712Z,50.57
2023-06-17T00:49:15.211Z,50.68
2023-06-17T00:51:42.882Z,50.71
2023-06-17T00:54:10.284Z,50.39
2023-06-17T00:56:40.484Z,51.04
2023-06-17T00:59:09.214Z,51.05
2023-06-17T01:01:37.437Z,51.13
2023-06-17T01:04:07.773Z,51.40
2023-06-17T01:06:51.679Z,51.34
2023-06-17T01:09:25.813Z,51.25
2023-06-17T01:11:58.469Z,51.25
2023-06-17T01:14:27.417Z,51.51
2023-06-17T01:16:55.632Z,51.43
2023-06-17T01:19:25.926Z,51.38
2023-06-17T01:21:54.541Z,51.47
2023-06-17T01:24:28.380Z,51.46
2023-06-17T01:26:57.716Z,51.58
2023-06-17T01:29:27.222Z,51.37
2023-06-17T01:31:57.783Z,51.32
2023-06-17T01:34:35.386Z,51.26
2023-06-17T01:37:08.719Z,51.34
2023-06-17T01:39:40.630Z,51.30
2023-06-17T01:42:15.050Z,51.28
2023-06-17T01:44:43.554Z,51.35
2023-06-17T01:47:11.403Z,51.30
2023-06-17T01:49:38.780Z,51.55
2023-06-17T01:52:08.172Z,51.12
2023-06-17T01:54:36.430Z,51.22
2023-06-17T01:57:03.844Z,51.35
2023-06-17T01:59:31.548Z,51.21
2023-06-17T02:01:58.536Z,51.31
2023-06-17T02:04:25.742Z,50.95
2023-06-17T02:06:52.843Z,50.96
2023-06-17T02:09:20.100Z,50.85
2023-06-17T02:11:48.333Z,51.14
2023-06-17T02:14:15.309Z,51.11
2023-06-17T02:16:46.510Z,50.92
2023-06-17T02:19:15.671Z,51.01
2023-06-17T02:21:44.057Z,50.64
2023-06-17T02:24:11.768Z,51.19
2023-06-17T02:26:38.778Z,51.25
2023-06-17T02:29:07.104Z,51.31
2023-06-17T02:31:34.351Z,51.33
2023-06-17T02:34:02.960Z,51.31
2023-06-17T02:36:29.945Z,51.11
2023-06-17T02:39:00.943Z,50.99
2023-06-17T02:41:27.844Z,50.99
2023-06-17T02:43:54.821Z,50.90
2023-06-17T02:46:23.895Z,51.13
2023-06-17T02:48:51.030Z,51.19
2023-06-17T02:51:18.100Z,51.08
2023-06-17T02:53:45.025Z,51.22
2023-06-17T02:56:12.019Z,51.34
2023-06-17T02:58:39.978Z,51.44
2023-06-17T03:01:07.044Z,51.53
2023-06-17T03:03:35.672Z,51.34
2023-06-17T03:06:06.480Z,51.42
2023-06-17T03:08:34.961Z,51.20
2023-06-17T03:11:02.063Z,51.30
2023-06-17T03:13:29.551Z,51.27
2023-06-17T03:15:59.797Z,51.46
2023-06-17T03:18:27.415Z,51.55
2023-06-17T03:20:56.043Z,51.01
2023-06-17T03:23:24.215Z,50.93
2023-06-17T03:25:52.791Z,51.05
2023-06-17T03:28:20.035Z,51.00
2023-06-17T03:30:47.570Z,50.80
2023-06-17T03:33:15.126Z,50.41
2023-06-17T03:35:42.166Z,50.51
2023-06-17T03:38:10.729Z,50.40
2023-06-17T03:40:37.806Z,50.60
2023-06-17T03:43:05.035Z,50.42
2023-06-17T03:45:33.828Z,50.44
2023-06-17T03:48:00.930Z,50.36
2023-06-17T03:50:27.849Z,50.40
2023-06-17T03:52:54.737Z,50.09
2023-06-17T03:55:23.618Z,50.27
2023-06-17T03:57:50.784Z,50.03
2023-06-17T04:00:18.734Z,50.38
2023-06-17T04:02:46.514Z,50.19
2023-06-17T04:05:14.406Z,50.04
2023-06-17T04:07:41.435Z,49.73
2023-06-17T04:10:10.467Z,50.22
2023-06-17T04:12:40.008Z,50.44
2023-06-17T04:15:09.102Z,50.54
2023-06-17T04:17:37.540Z,50.60
2023-06-17T04:20:12.005Z,51.01
2023-06-17T04:22:40.998Z,50.90
2023-06-17T04:25:10.763Z,50.74
2023-06-17T04:27:39.857Z,50.38
2023-06-17T04:30:09.815Z,50.63
2023-06-17T04:32:40.091Z,50.63
2023-06-17T04:35:08.373Z,50.63
2023-06-17T04:37:35.563Z,50.67
2023-06-17T04:40:05.847Z,50.79
2023-06-17T04:42:34.778Z,50.81
2023-06-17T04:45:03.778Z,50.60
2023-06-17T04:47:30.764Z,50.75
2023-06-17T04:49:57.848Z,51.17
2023-06-17T04:52:25.681Z,51.06
2023-06-17T04:54:52.809Z,50.91
2023-06-17T04:57:19.945Z,50.78
2023-06-17T04:59:47.037Z,50.63
2023-06-17T05:02:15.611Z,50.57
2023-06-17T05:04:42.563Z,50.55
2023-06-17T05:07:09.515Z,50.62
2023-06-17T05:09:36.412Z,50.50
2023-06-17T05:12:03.708Z,50.54
2023-06-17T05:14:30.707Z,50.72
2023-06-17T05:16:57.743Z,50.64
2023-06-17T05:19:26.031Z,50.49
2023-06-17T05:21:52.980Z,50.50
2023-06-17T05:24:19.963Z,50.60
2023-06-17T05:26:47.131Z,50.73
2023-06-17T05:29:14.068Z,50.25
2023-06-17T05:31:41.052Z,50.33
2023-06-17T05:34:08.025Z,50.00
2023-06-17T05:36:36.314Z,49.87
2023-06-17T05:39:03.419Z,49.73
2023-06-17T05:41:30.423Z,49.30
2023-06-17T05:43:57.327Z,49.39
2023-06-17T05:46:24.347Z,49.41
2023-06-17T05:48:51.303Z,49.57
2023-06-17T05:51:18.327Z,49.60
2023-06-17T05:53:47.147Z,49.11
2023-06-17T05:56:14.166Z,49.13
2023-06-17T05:58:41.098Z,48.91
2023-06-17T06:01:08.060Z,48.91
2023-06-17T06:03:35.024Z,48.82
2023-06-17T06:06:02.011Z,48.75
2023-06-17T06:08:29.024Z,49.03
2023-06-17T06:10:57.280Z,48.69
2023-06-17T06:13:24.278Z,48.59
2023-06-17T06:15:51.370Z,48.49
2023-06-17T06:18:18.362Z,48.68
2023-06-17T06:20:45.297Z,48.42
2023-06-17T06:23:12.497Z,47.98
2023-06-17T06:25:39.456Z,48.00
2023-06-17T06:28:07.817Z,47.59
2023-06-17T06:30:34.764Z,48.27
2023-06-17T06:33:01.785Z,47.93
2023-06-17T06:35:28.757Z,48.14
2023-06-17T06:37:55.715Z,48.25
2023-06-17T06:40:22.889Z,47.54
2023-06-17T06:42:50.048Z,47.82
2023-06-17T06:45:18.735Z,47.58
2023-06-17T06:47:45.756Z,47.96
2023-06-17T06:50:12.805Z,47.78
2023-06-17T06:52:39.815Z,47.70
2023-06-17T06:55:07.668Z,48.07
2023-06-17T06:57:34.647Z,48.10
2023-06-17T07:00:01.808Z,47.65
2023-06-17T07:02:30.648Z,47.46
2023-06-17T07:04:57.773Z,47.58
2023-06-17T07:07:24.782Z,47.33
2023-06-17T07:09:51.697Z,47.55
2023-06-17T07:12:18.690Z,47.31
2023-06-17T07:14:45.665Z,47.23
2023-06-17T07:17:12.649Z,46.67
2023-06-17T07:19:40.960Z,46.99
2023-06-17T07:22:09.035Z,47.02
2023-06-17T07:24:36.079Z,46.85
2023-06-17T07:27:03.668Z,47.34
2023-06-17T07:29:31.185Z,47.38
2023-06-17T07:31:58.160Z,47.22
2023-06-17T07:34:25.971Z,47.01
2023-06-17T07:36:54.243Z,46.84
2023-06-17T07:39:21.337Z,46.92
2023-06-17T07:41:48.336Z,47.05
2023-06-17T07:44:15.430Z,47.09
2023-06-17T07:46:42.432Z,46.93
2023-06-17T07:49:09.482Z,47.38
2023-06-17T07:51:38.123Z,47.22
2023-06-17T07:54:06.683Z,47.40
2023-06-17T07:56:33.645Z,47.55
2023-06-17T07:59:00.579Z,47.00
2023-06-17T08:01:28.133Z,46.98
2023-06-17T08:03:55.449Z,46.59
2023-06-17T08:06:23.552Z,46.62
2023-06-17T08:08:51.251Z,46.78
2023-06-17T08:11:19.976Z,46.32
2023-06-17T08:13:47.262Z,46.35
2023-06-17T08:16:14.307Z,46.17
2023-06-17T08:18:41.605Z,45.37
2023-06-17T08:21:08.587Z,45.69
2023-06-17T08:23:35.699Z,45.67
2023-06-17T08:26:02.633Z,44.94
2023-06-17T08:28:30.868Z,44.92
2023-06-17T08:30:57.758Z,44.92
2023-06-17T08:33:24.679Z,44.56
2023-06-17T08:35:51.671Z,44.07
2023-06-17T08:38:18.585Z,44.01
2023-06-17T08:40:48.736Z,43.95
2023-06-17T08:43:20.916Z,43.44
2023-06-17T08:45:50.629Z,43.40
2023-06-17T08:48:18.499Z,42.81
2023-06-17T08:50:50.052Z,43.28
2023-06-17T08:53:17.970Z,42.83
2023-06-17T08:55:45.618Z,42.94
2023-06-17T08:58:12.816Z,43.34
2023-06-17T09:00:40.123Z,43.09
2023-06-17T09:03:10.173Z,43.27
2023-06-17T09:05:37.327Z,43.08
2023-06-17T09:08:05.164Z,42.68
2023-06-17T09:10:43.697Z,42.54
2023-06-17T09:13:10.994Z,40.00
2023-06-17T09:15:41.347Z,37.29
2023-06-17T09:18:09.895Z,35.75
2023-06-17T09:20:36.889Z,36.14
2023-06-17T09:23:03.920Z,36.61
2023-06-17T09:25:36.355Z,36.80
2023-06-17T09:28:16.131Z,37.40
2023-06-17T09:30:45.218Z,36.85
2023-06-17T09:33:21.565Z,36.94
2023-06-17T09:35:58.649Z,36.91
2023-06-17T09:38:25.684Z,36.65
2023-06-17T09:40:53.784Z,35.46
2023-06-17T09:43:28.322Z,32.92
2023-06-17T09:46:00.416Z,30.96
2023-06-17T09:48:33.867Z,29.92
2023-06-17T09:51:01.685Z,28.18
2023-06-17T09:53:31.246Z,28.29
2023-06-17T09:56:01.098Z,28.86
2023-06-17T09:58:30.396Z,28.95
2023-06-17T10:00:58.913Z,28.67
2023-06-17T10:03:26.828Z,27.45
2023-06-17T10:06:02.298Z,25.82
2023-06-17T10:08:31.998Z,24.70
2023-06-17T10:11:01.334Z,23.57
2023-06-17T10:13:35.608Z,23.25
2023-06-17T10:16:07.228Z,23.70
2023-06-17T10:18:37.967Z,22.81
2023-06-17T10:21:10.015Z,24.05
2023-06-17T10:23:38.709Z,24.30
2023-06-17T10:26:07.121Z,24.06
2023-06-17T10:28:45.691Z,23.64
2023-06-17T10:31:27.419Z,23.08
2023-06-17T10:33:56.085Z,23.79
2023-06-17T10:36:26.893Z,24.15
2023-06-17T10:38:56.739Z,24.80
2023-06-17T10:41:52.178Z,26.19
2023-06-17T10:44:42.327Z,27.24
2023-06-17T10:47:23.597Z,28.49
2023-06-17T10:49:53.515Z,29.01
2023-06-17T10:52:21.946Z,29.78
2023-06-17T10:54:54.088Z,29.91
2023-06-17T10:57:34.297Z,30.52
2023-06-17T11:00:08.011Z,31.23
2023-06-17T11:02:38.490Z,31.81
2023-06-17T11:05:07.627Z,31.95
2023-06-17T11:07:36.457Z,31.78
2023-06-17T11:10:04.491Z,32.68
2023-06-17T11:12:31.650Z,32.46
2023-06-17T11:15:01.134Z,32.63
2023-06-17T11:17:28.636Z,33.26
2023-06-17T11:19:56.227Z,32.99
2023-06-17T11:22:23.941Z,33.60
2023-06-17T11:24:52.272Z,33.21
2023-06-17T11:27:19.444Z,33.36
2023-06-17T11:29:48.553Z,34.02
2023-06-17T11:32:15.644Z,33.27
2023-06-17T11:34:43.243Z,33.43
2023-06-17T11:37:12.377Z,33.27
2023-06-17T11:39:40.280Z,33.43
2023-06-17T11:42:10.405Z,33.57
2023-06-17T11:44:38.421Z,33.00
2023-06-17T11:47:07.683Z,33.94
2023-06-17T11:49:35.581Z,33.75
2023-06-17T11:52:07.123Z,34.15
2023-06-17T11:54:34.155Z,34.42
2023-06-17T11:57:01.357Z,34.43
2023-06-17T11:59:30.983Z,34.70
2023-06-17T12:01:57.974Z,34.08
2023-06-17T12:04:25.217Z,34.42
2023-06-17T12:06:53.904Z,34.77
2023-06-17T12:09:22.256Z,34.62
2023-06-17T12:11:49.347Z,34.93
2023-06-17T12:14:17.009Z,34.34
2023-06-17T12:16:47.870Z,34.40
2023-06-17T12:19:23.071Z,34.51
2023-06-17T12:21:50.780Z,34.45
2023-06-17T12:24:18.649Z,34.05
2023-06-17T12:26:45.744Z,34.74
2023-06-17T12:29:24.164Z,34.16
2023-06-17T12:31:54.769Z,33.57
2023-06-17T12:34:21.760Z,33.11
2023-06-17T12:36:48.881Z,32.58
2023-06-17T12:39:15.859Z,32.70
2023-06-17T12:41:44.451Z,33.18
2023-06-17T12:44:11.536Z,33.23
2023-06-17T12:46:39.194Z,33.17
2023-06-17T12:49:07.593Z,32.61
2023-06-17T12:51:35.346Z,32.43
2023-06-17T12:54:02.260Z,32.90
2023-06-17T12:56:29.164Z,32.47
2023-06-17T12:58:56.117Z,31.87
2023-06-17T13:01:23.298Z,32.11
2023-06-17T13:03:50.274Z,32.16
2023-06-17T13:06:20.248Z,32.09
2023-06-17T13:08:47.165Z,31.54
2023-06-17T13:11:14.059Z,32.22
2023-06-17T13:13:41.023Z,31.86
2023-06-17T13:16:08.928Z,31.35
2023-06-17T13:18:35.913Z,31.20
2023-06-17T13:21:02.784Z,31.19
2023-06-17T13:23:31.373Z,30.48
2023-06-17T13:25:58.339Z,30.88
2023-06-17T13:28:25.326Z,30.37
2023-06-17T13:30:52.883Z,30.12
2023-06-17T13:33:19.768Z,29.51
2023-06-17T13:35:47.067Z,29.49
2023-06-17T13:38:14.104Z,30.02
2023-06-17T13:40:42.353Z,30.29
2023-06-17T13:43:09.420Z,29.59
2023-06-17T13:45:36.354Z,29.14
2023-06-17T13:48:04.640Z,28.71
2023-06-17T13:50:32.188Z,29.04
2023-06-17T13:52:59.808Z,29.47
2023-06-17T13:55:27.159Z,30.07
2023-06-17T13:57:55.430Z,29.67
2023-06-17T14:00:22.795Z,29.95
2023-06-17T14:02:50.130Z,29.70
2023-06-17T14:05:17.706Z,28.67
2023-06-17T14:07:44.717Z,29.13
2023-06-17T14:10:12.673Z,29.87
2023-06-17T14:12:39.609Z,29.57
2023-06-17T14:15:10.876Z,29.18
2023-06-17T14:17:37.922Z,29.31
2023-06-17T14:20:06.424Z,28.98
2023-06-17T14:22:33.560Z,28.87
2023-06-17T14:25:00.490Z,29.62
2023-06-17T14:27:38.653Z,29.53
2023-06-17T14:30:11.155Z,29.04
2023-06-17T14:32:38.700Z,29.16
2023-06-17T14:35:07.365Z,28.83
2023-06-17T14:37:34.506Z,28.98
2023-06-17T14:40:01.425Z,28.40
2023-06-17T14:42:28.673Z,28.85
2023-06-17T14:44:55.650Z,28.71
2023-06-17T14:47:24.458Z,28.06
2023-06-17T14:49:51.471Z,28.43
2023-06-17T14:52:18.761Z,27.71
2023-06-17T14:54:45.840Z,27.20
2023-06-17T14:57:13.455Z,27.36
2023-06-17T14:59:41.049Z,27.20
2023-06-17T15:02:38.382Z,27.60
2023-06-17T15:05:06.438Z,26.64
2023-06-17T15:07:33.365Z,25.62
2023-06-17T15:10:00.276Z,25.06
2023-06-17T15:12:27.228Z,24.16
2023-06-17T15:14:54.607Z,22.41
2023-06-17T15:17:22.032Z,23.47
2023-06-17T15:19:50.384Z,23.35
2023-06-17T15:22:17.324Z,22.87
2023-06-17T15:24:44.258Z,23.69
2023-06-17T15:27:11.236Z,24.33
2023-06-17T15:29:38.260Z,24.48
2023-06-17T15:32:06.493Z,25.19
2023-06-17T15:34:33.505Z,25.46
2023-06-17T15:37:01.968Z,24.99
2023-06-17T15:39:29.572Z,25.89
2023-06-17T15:41:56.520Z,26.35
2023-06-17T15:44:23.731Z,26.92
2023-06-17T15:46:51.354Z,26.76
2023-06-17T15:49:18.766Z,27.33
2023-06-17T15:51:45.796Z,27.23
2023-06-17T15:54:14.399Z,27.68
2023-06-17T15:56:46.865Z,27.29
2023-06-17T15:59:13.922Z,27.67
2023-06-17T16:01:41.054Z,27.68
2023-06-17T16:04:33.227Z,26.24
2023-06-17T16:07:00.978Z,25.57
2023-06-17T16:09:32.597Z,25.25
2023-06-17T16:12:00.773Z,25.34
2023-06-17T16:14:29.520Z,25.21
2023-06-17T16:16:57.124Z,24.64
2023-06-17T16:19:26.390Z,24.81
2023-06-17T16:21:54.404Z,24.51
2023-06-17T16:24:22.025Z,24.89
2023-06-17T16:26:50.627Z,24.93
2023-06-17T16:29:18.230Z,25.04
2023-06-17T16:31:45.925Z,24.78
2023-06-17T16:34:13.523Z,23.92
2023-06-17T16:36:41.030Z,23.84
2023-06-17T16:39:10.068Z,23.90
2023-06-17T16:41:37.627Z,24.42
2023-06-17T16:44:05.902Z,24.26
2023-06-17T16:46:32.883Z,24.26
2023-06-17T16:49:00.201Z,24.64
2023-06-17T16:51:29.609Z,24.76
2023-06-17T16:53:56.882Z,25.39
2023-06-17T16:56:23.941Z,25.62
2023-06-17T16:58:51.402Z,25.79
2023-06-17T17:01:19.736Z,26.04
2023-06-17T17:03:47.058Z,26.53
2023-06-17T17:06:14.343Z,26.66
2023-06-17T17:08:41.310Z,27.41
2023-06-17T17:11:08.562Z,26.80
2023-06-17T17:13:47.955Z,27.14
2023-06-17T17:16:16.251Z,27.77
2023-06-17T17:18:44.602Z,27.50
2023-06-17T17:21:11.802Z,27.81
2023-06-17T17:23:40.509Z,27.85
2023-06-17T17:26:08.106Z,28.34
2023-06-17T17:28:35.056Z,29.29
2023-06-17T17:31:03.409Z,29.73
2023-06-17T17:33:30.581Z,30.05
2023-06-17T17:35:58.959Z,29.98
2023-06-17T17:38:25.960Z,30.10
2023-06-17T17:40:53.116Z,31.31
2023-06-17T17:43:20.270Z,31.96
2023-06-17T17:45:47.223Z,31.88
2023-06-17T17:48:14.284Z,32.36
2023-06-17T17:50:41.186Z,33.04
2023-06-17T17:53:09.846Z,32.79
2023-06-17T17:55:36.823Z,33.69
2023-06-17T17:58:04.010Z,33.35
2023-06-17T18:00:31.020Z,33.83
2023-06-17T18:02:58.007Z,34.92
2023-06-17T18:05:25.028Z,34.81
2023-06-17T18:07:53.713Z,34.47
2023-06-17T18:10:22.746Z,35.28
2023-06-17T18:12:49.926Z,35.38
2023-06-17T18:15:16.964Z,35.79
2023-06-17T18:17:43.959Z,35.91
2023-06-17T18:20:11.650Z,36.22
2023-06-17T18:22:38.722Z,37.42
2023-06-17T18:25:06.922Z,37.18
2023-06-17T18:27:37.016Z,37.43
2023-06-17T18:30:05.924Z,37.96
2023-06-17T18:32:33.581Z,37.85
2023-06-17T18:35:01.032Z,38.01
2023-06-17T18:37:27.984Z,38.06
2023-06-17T18:39:54.886Z,37.99
2023-06-17T18:42:24.106Z,38.41
2023-06-17T18:44:52.446Z,38.01
2023-06-17T18:47:19.379Z,38.12
2023-06-17T18:49:47.162Z,38.57
2023-06-17T18:52:15.527Z,38.61
2023-06-17T18:54:42.458Z,38.45
2023-06-17T18:57:09.354Z,38.31
2023-06-17T18:59:36.328Z,38.87
2023-06-17T19:02:05.528Z,38.55
2023-06-17T19:04:32.491Z,38.47
2023-06-17T19:06:59.470Z,38.97
2023-06-17T19:09:26.661Z,38.77
2023-06-17T19:11:54.508Z,38.74
2023-06-17T19:14:21.480Z,39.14
2023-06-17T19:16:49.950Z,39.05
2023-06-17T19:19:18.356Z,39.24
2023-06-17T19:21:45.370Z,39.13
2023-06-17T19:24:12.312Z,39.38
2023-06-17T19:26:39.634Z,39.60
2023-06-17T19:29:06.606Z,39.51
2023-06-17T19:31:33.586Z,39.65
2023-06-17T19:34:00.634Z,39.64
2023-06-17T19:36:28.901Z,39.83
2023-06-17T19:38:55.851Z,39.89
2023-06-17T19:41:22.784Z,40.29
2023-06-17T19:43:54.575Z,40.37
2023-06-17T19:46:22.954Z,40.24
2023-06-17T19:48:50.095Z,40.50
2023-06-17T19:51:17.239Z,40.69
2023-06-17T19:53:45.563Z,40.89
2023-06-17T19:56:13.147Z,40.88
2023-06-17T19:58:40.329Z,41.16
2023-06-17T20:01:07.538Z,41.18
2023-06-17T20:03:34.708Z,41.19
2023-06-17T20:06:01.853Z,41.49
2023-06-17T20:08:29.091Z,41.47
2023-06-17T20:10:57.434Z,41.56
2023-06-17T20:13:24.452Z,41.64
2023-06-17T20:15:52.509Z,41.65
2023-06-17T20:18:19.496Z,41.87
2023-06-17T20:20:46.626Z,42.04
2023-06-17T20:23:13.673Z,42.35
2023-06-17T20:25:40.695Z,42.52
2023-06-17T20:28:09.024Z,42.25
2023-06-17T20:30:36.210Z,42.36
2023-06-17T20:33:03.421Z,42.66
2023-06-17T20:35:30.376Z,42.76
2023-06-17T20:37:57.794Z,42.76
2023-06-17T20:40:24.720Z,43.22
2023-06-17T20:42:51.709Z,43.17
2023-06-17T20:45:20.068Z,43.43
2023-06-17T20:47:47.044Z,43.36
2023-06-17T20:50:13.992Z,43.70
2023-06-17T20:52:41.106Z,43.46
2023-06-17T20:55:09.434Z,44.19
2023-06-17T20:57:36.420Z,44.27
2023-06-17T21:00:04.016Z,44.13
2023-06-17T21:02:32.356Z,44.39
2023-06-17T21:04:59.323Z,44.88
2023-06-17T21:07:26.284Z,44.73
2023-06-17T21:09:53.714Z,45.03
2023-06-17T21:12:22.077Z,44.89
2023-06-17T21:14:49.100Z,44.77
2023-06-17T21:17:16.360Z,45.01
2023-06-17T21:19:44.877Z,45.60
2023-06-17T21:22:11.829Z,45.85
2023-06-17T21:24:39.018Z,46.17
2023-06-17T21:27:11.794Z,45.65
2023-06-17T21:29:39.478Z,46.56
2023-06-17T21:32:09.455Z,46.09
2023-06-17T21:34:36.694Z,47.13
2023-06-17T21:37:05.978Z,47.36
2023-06-17T21:39:32.955Z,47.43
2023-06-17T21:42:00.229Z,47.98
2023-06-17T21:44:27.283Z,47.91
2023-06-17T21:46:54.263Z,47.50
2023-06-17T21:49:21.441Z,47.41
2023-06-17T21:51:49.861Z,48.10
2023-06-17T21:54:18.192Z,47.54
2023-06-17T21:56:45.105Z,47.97
2023-06-17T21:59:12.083Z,48.65
2023-06-17T22:01:39.204Z,48.60
2023-06-17T22:04:06.591Z,48.36
2023-06-17T22:06:33.685Z,48.49
2023-06-17T22:09:00.659Z,48.28
2023-06-17T22:11:28.891Z,48.32
2023-06-17T22:13:55.875Z,49.36
2023-06-17T22:16:22.900Z,48.97
2023-06-17T22:18:49.932Z,49.14
2023-06-17T22:21:16.972Z,49.23
2023-06-17T22:23:44.060Z,48.80
2023-06-17T22:26:10.957Z,49.80
2023-06-17T22:28:39.331Z,49.31
2023-06-17T22:31:06.325Z,49.04
2023-06-17T22:33:33.322Z,49.63
2023-06-17T22:36:00.619Z,49.24
2023-06-17T22:38:27.522Z,49.77
2023-06-17T22:40:54.517Z,49.25
2023-06-17T22:43:21.494Z,49.83
2023-06-17T22:45:50.039Z,49.13
2023-06-17T22:48:17.117Z,49.43
2023-06-17T22:50:44.063Z,49.54
2023-06-17T22:53:11.057Z,49.31
2023-06-17T22:55:38.098Z,49.92
2023-06-17T22:58:05.074Z,49.69
2023-06-17T23:00:32.289Z,49.44
2023-06-17T23:03:00.714Z,49.58
2023-06-17T23:05:27.876Z,49.81
2023-06-17T23:07:54.814Z,49.51
2023-06-17T23:10:21.953Z,49.78
2023-06-17T23:12:49.178Z,49.52
2023-06-17T23:15:16.254Z,49.59
2023-06-17T23:17:43.348Z,49.79
2023-06-17T23:20:12.455Z,49.90
2023-06-17T23:22:39.402Z,49.69
2023-06-17T23:25:08.641Z,49.62
2023-06-17T23:27:35.658Z,49.34
2023-06-17T23:30:02.756Z,49.65
2023-06-17T23:32:29.913Z,49.71
2023-06-17T23:34:57.389Z,49.82
2023-06-17T23:37:26.510Z,49.60
2023-06-17T23:39:53.653Z,49.45
2023-06-17T23:42:20.627Z,49.22
2023-06-17T23:44:49.213Z,49.45
2023-06-17T23:47:18.059Z,49.31
2023-06-17T23:49:45.886Z,49.67
2023-06-17T23:52:13.347Z,49.94
2023-06-17T23:54:42.038Z,49.71
2023-06-17T23:57:09.184Z,49.57
2023-06-17T23:59:36.387Z,49.77
